Meteo Giornale » Osservazioni meteo Stati Uniti (USA) » Tulsa
ore: 13:53 - Osservazioni Meteo Tulsa
Lat. 36° 11' N Lon. 95° 53' W Alt. 206 metri s.l.m.
38 °C
Poco Nuvoloso
Temp. 24 Ore
26 °C
39 °C
Sud
18.5 Km/h
Dew point 16 °C
Umidità 27 %
Visibilità 10 Km
Il sole sorge alle ore 06:54
Il sole tramonta alle ore 19:52
| Data e Ora | Cielo e Fenomeni | T °C | DP °C | Um. % | Pres. hPa | Vis. km | Vento km/h | |
|---|---|---|---|---|---|---|---|---|
| Oggi h: 13:53 | Poco Nuvoloso | 38 | 16 | 27 | 1015 | 10 | S 18.5 | |
| Oggi h: 12:53 | Poco Nuvoloso | 37 | 18 | 32 | 1016 | 10 | S 20.3 | |
| Oggi h: 11:53 | Poco Nuvoloso | 36 | 19 | 36 | 1017 | 10 | S/SO 14.8 | |
| Oggi h: 10:53 | Poco Nuvoloso | 33 | 19 | 43 | 1017 | 10 | SO 11.1 | |
| Oggi h: 09:53 | Poco Nuvoloso | 32 | 19 | 46 | 1017 | 10 | S 14.8 | |
| Oggi h: 08:53 | Poco Nuvoloso | 29 | 18 | 51 | 1017 | 10 | S 20.3 | |
| Oggi h: 07:53 | Poco Nuvoloso | 26 | 17 | 57 | 1016 | 10 | S 11.1 | |
| Oggi h: 06:53 | Poco Nuvoloso | 26 | 17 | 57 | 1016 | 10 | S 7.4 | |
| Oggi h: 05:53 | Poco Nuvoloso | 26 | 17 | 57 | 1015 | 10 | S/SE 11.1 | |
| Oggi h: 04:53 | Poco Nuvoloso | 27 | 17 | 54 | 1014 | 10 | S 16.7 | |
| Oggi h: 03:53 | Poco Nuvoloso | 28 | 17 | 51 | 1014 | 10 | S 18.5 | |
| Oggi h: 02:53 | Poco Nuvoloso | 29 | 17 | 48 | 1014 | 10 | S 18.5 | |
| Oggi h: 01:53 | Poco Nuvoloso | 29 | 17 | 48 | 1014 | 10 | S 16.7 | |
| Oggi h: 00:53 | Poco Nuvoloso | 27 | 17 | 54 | 1014 | 10 | SE 14.8 | |
| Ieri h: 23:53 | Poco Nuvoloso | 31 | 16 | 40 | 1013 | 10 | S 14.8 | |
| Ieri h: 22:53 | Poco Nuvoloso | 31 | 16 | 40 | 1013 | 10 | S 16.7 | |
| Ieri h: 21:53 | Poco Nuvoloso | 33 | 15 | 33 | 1012 | 10 | S 14.8 | |
| Ieri h: 20:53 | Poco Nuvoloso | 33 | 15 | 33 | 1012 | 10 | SE 13 | |
| Ieri h: 19:53 | Poco Nuvoloso | 36 | 15 | 28 | 1011 | 10 | S/SE 13 | |
| Ieri h: 18:53 | Poco Nuvoloso | 37 | 16 | 28 | 1011 | 10 | S 20.3 | |
| Ieri h: 17:53 | Poco Nuvoloso | 38 | 16 | 27 | 1011 | 10 | S 24 | |
| Ieri h: 16:53 | Nuvoloso | 38 | 16 | 27 | 1012 | 10 | S 22.2 | |
| Ieri h: 15:53 | Nuvoloso | 39 | 16 | 26 | 1012 | 10 | S/SO 14.8 | |
| Ieri h: 14:53 | Molto Nuvoloso | 37 | 16 | 28 | 1013 | 10 | N 0 | |



